sensor_id;sensor_type;location;lat;lon;timestamp;temperature;humidity
44517;DHT22;30223;17.182;-96.766;2023-01-09T00:00:44;23.60;51.80
44517;DHT22;30223;17.182;-96.766;2023-01-09T00:03:11;23.50;51.70
44517;DHT22;30223;17.182;-96.766;2023-01-09T00:05:37;23.50;51.70
44517;DHT22;30223;17.182;-96.766;2023-01-09T00:08:04;23.50;50.80
44517;DHT22;30223;17.182;-96.766;2023-01-09T00:10:31;23.50;49.00
44517;DHT22;30223;17.182;-96.766;2023-01-09T00:12:57;23.40;47.80
44517;DHT22;30223;17.182;-96.766;2023-01-09T00:15:24;23.40;48.30
44517;DHT22;30223;17.182;-96.766;2023-01-09T00:17:51;23.40;49.60
44517;DHT22;30223;17.182;-96.766;2023-01-09T00:20:17;23.40;50.20
44517;DHT22;30223;17.182;-96.766;2023-01-09T00:22:44;23.40;50.70
44517;DHT22;30223;17.182;-96.766;2023-01-09T00:25:11;23.40;50.70
44517;DHT22;30223;17.182;-96.766;2023-01-09T00:27:37;23.40;50.80
44517;DHT22;30223;17.182;-96.766;2023-01-09T00:30:05;23.40;50.70
44517;DHT22;30223;17.182;-96.766;2023-01-09T00:32:32;23.40;51.00
44517;DHT22;30223;17.182;-96.766;2023-01-09T00:34:58;23.40;51.00
44517;DHT22;30223;17.182;-96.766;2023-01-09T00:37:25;23.40;51.10
44517;DHT22;30223;17.182;-96.766;2023-01-09T00:39:52;23.30;51.00
44517;DHT22;30223;17.182;-96.766;2023-01-09T00:42:21;23.40;51.10
44517;DHT22;30223;17.182;-96.766;2023-01-09T00:44:54;23.30;51.10
44517;DHT22;30223;17.182;-96.766;2023-01-09T00:47:27;23.30;51.20
44517;DHT22;30223;17.182;-96.766;2023-01-09T00:49:58;23.30;50.90
44517;DHT22;30223;17.182;-96.766;2023-01-09T00:52:26;23.30;51.00
44517;DHT22;30223;17.182;-96.766;2023-01-09T00:54:53;23.30;50.90
44517;DHT22;30223;17.182;-96.766;2023-01-09T00:57:20;23.30;51.10
44517;DHT22;30223;17.182;-96.766;2023-01-09T00:59:49;23.30;51.10
44517;DHT22;30223;17.182;-96.766;2023-01-09T01:02:17;23.30;51.00
44517;DHT22;30223;17.182;-96.766;2023-01-09T01:04:43;23.20;50.80
44517;DHT22;30223;17.182;-96.766;2023-01-09T01:07:28;23.20;51.00
44517;DHT22;30223;17.182;-96.766;2023-01-09T01:10:14;23.20;51.00
44517;DHT22;30223;17.182;-96.766;2023-01-09T01:12:42;23.20;51.00
44517;DHT22;30223;17.182;-96.766;2023-01-09T01:15:09;23.20;50.90
44517;DHT22;30223;17.182;-96.766;2023-01-09T01:17:38;23.20;50.80
44517;DHT22;30223;17.182;-96.766;2023-01-09T01:20:07;23.10;50.40
44517;DHT22;30223;17.182;-96.766;2023-01-09T01:22:33;23.10;50.50
44517;DHT22;30223;17.182;-96.766;2023-01-09T01:25:00;23.10;50.80
44517;DHT22;30223;17.182;-96.766;2023-01-09T01:27:27;23.10;51.00
44517;DHT22;30223;17.182;-96.766;2023-01-09T01:29:54;23.10;51.00
44517;DHT22;30223;17.182;-96.766;2023-01-09T01:32:21;23.10;51.10
44517;DHT22;30223;17.182;-96.766;2023-01-09T01:34:47;23.10;51.30
44517;DHT22;30223;17.182;-96.766;2023-01-09T01:37:14;23.10;51.30
44517;DHT22;30223;17.182;-96.766;2023-01-09T01:39:41;23.10;51.40
44517;DHT22;30223;17.182;-96.766;2023-01-09T01:42:09;23.10;51.40
44517;DHT22;30223;17.182;-96.766;2023-01-09T01:47:50;23.00;51.50
44517;DHT22;30223;17.182;-96.766;2023-01-09T01:50:28;23.00;51.60
44517;DHT22;30223;17.182;-96.766;2023-01-09T01:58:25;23.00;51.80
44517;DHT22;30223;17.182;-96.766;2023-01-09T02:00:52;23.00;51.90
44517;DHT22;30223;17.182;-96.766;2023-01-09T02:03:22;23.00;52.00
44517;DHT22;30223;17.182;-96.766;2023-01-09T02:05:50;23.00;52.00
44517;DHT22;30223;17.182;-96.766;2023-01-09T02:08:18;22.90;52.10
44517;DHT22;30223;17.182;-96.766;2023-01-09T02:10:45;22.90;52.10
44517;DHT22;30223;17.182;-96.766;2023-01-09T02:13:12;22.90;52.10
44517;DHT22;30223;17.182;-96.766;2023-01-09T02:18:49;22.90;52.20
44517;DHT22;30223;17.182;-96.766;2023-01-09T02:27:22;22.80;52.30
44517;DHT22;30223;17.182;-96.766;2023-01-09T02:38:40;22.80;52.50
44517;DHT22;30223;17.182;-96.766;2023-01-09T02:41:25;22.80;52.50
44517;DHT22;30223;17.182;-96.766;2023-01-09T02:44:22;22.70;52.60
44517;DHT22;30223;17.182;-96.766;2023-01-09T02:49:57;22.70;52.60
44517;DHT22;30223;17.182;-96.766;2023-01-09T02:55:38;22.70;52.70
44517;DHT22;30223;17.182;-96.766;2023-01-09T02:58:29;22.60;52.60
44517;DHT22;30223;17.182;-96.766;2023-01-09T03:08:50;22.60;52.80
44517;DHT22;30223;17.182;-96.766;2023-01-09T03:11:18;22.60;52.80
44517;DHT22;30223;17.182;-96.766;2023-01-09T03:13:50;22.60;52.90
44517;DHT22;30223;17.182;-96.766;2023-01-09T03:16:23;22.60;52.80
44517;DHT22;30223;17.182;-96.766;2023-01-09T03:18:51;22.50;52.90
44517;DHT22;30223;17.182;-96.766;2023-01-09T03:21:20;22.50;52.90
44517;DHT22;30223;17.182;-96.766;2023-01-09T03:23:55;22.50;52.90
44517;DHT22;30223;17.182;-96.766;2023-01-09T03:26:23;22.50;52.90
44517;DHT22;30223;17.182;-96.766;2023-01-09T03:28:49;22.50;52.90
44517;DHT22;30223;17.182;-96.766;2023-01-09T03:31:16;22.50;52.90
44517;DHT22;30223;17.182;-96.766;2023-01-09T03:33:43;22.40;52.90
44517;DHT22;30223;17.182;-96.766;2023-01-09T03:36:11;22.40;53.00
44517;DHT22;30223;17.182;-96.766;2023-01-09T03:38:39;22.40;52.90
44517;DHT22;30223;17.182;-96.766;2023-01-09T03:41:06;22.40;52.90
44517;DHT22;30223;17.182;-96.766;2023-01-09T03:43:33;22.40;53.00
44517;DHT22;30223;17.182;-96.766;2023-01-09T03:46:00;22.40;53.00
44517;DHT22;30223;17.182;-96.766;2023-01-09T03:48:27;22.30;53.00
44517;DHT22;30223;17.182;-96.766;2023-01-09T03:50:54;22.30;53.00
44517;DHT22;30223;17.182;-96.766;2023-01-09T03:53:24;22.30;53.00
44517;DHT22;30223;17.182;-96.766;2023-01-09T03:55:52;22.30;53.00
44517;DHT22;30223;17.182;-96.766;2023-01-09T03:58:19;22.30;53.00
44517;DHT22;30223;17.182;-96.766;2023-01-09T04:00:47;22.20;52.90
44517;DHT22;30223;17.182;-96.766;2023-01-09T04:03:15;22.30;53.00
44517;DHT22;30223;17.182;-96.766;2023-01-09T04:05:43;22.20;53.00
44517;DHT22;30223;17.182;-96.766;2023-01-09T04:08:09;22.20;53.00
44517;DHT22;30223;17.182;-96.766;2023-01-09T04:10:36;22.20;53.00
44517;DHT22;30223;17.182;-96.766;2023-01-09T04:13:03;22.20;53.00
44517;DHT22;30223;17.182;-96.766;2023-01-09T04:15:29;22.20;53.00
44517;DHT22;30223;17.182;-96.766;2023-01-09T04:17:56;22.20;53.00
44517;DHT22;30223;17.182;-96.766;2023-01-09T04:20:23;22.20;53.00
44517;DHT22;30223;17.182;-96.766;2023-01-09T04:22:49;22.10;53.00
44517;DHT22;30223;17.182;-96.766;2023-01-09T04:25:16;22.10;53.00
44517;DHT22;30223;17.182;-96.766;2023-01-09T04:27:42;22.10;52.90
44517;DHT22;30223;17.182;-96.766;2023-01-09T04:30:10;22.10;52.90
44517;DHT22;30223;17.182;-96.766;2023-01-09T04:32:36;22.10;52.90
44517;DHT22;30223;17.182;-96.766;2023-01-09T04:35:03;22.10;53.00
44517;DHT22;30223;17.182;-96.766;2023-01-09T04:37:30;22.10;53.00
44517;DHT22;30223;17.182;-96.766;2023-01-09T04:39:57;22.00;52.90
44517;DHT22;30223;17.182;-96.766;2023-01-09T04:42:23;22.00;52.90
44517;DHT22;30223;17.182;-96.766;2023-01-09T04:44:50;22.00;52.90
44517;DHT22;30223;17.182;-96.766;2023-01-09T04:47:20;22.00;52.90
44517;DHT22;30223;17.182;-96.766;2023-01-09T04:49:46;22.00;52.90
44517;DHT22;30223;17.182;-96.766;2023-01-09T04:52:13;22.00;52.80
44517;DHT22;30223;17.182;-96.766;2023-01-09T04:54:40;22.00;52.90
44517;DHT22;30223;17.182;-96.766;2023-01-09T04:57:07;21.90;52.80
44517;DHT22;30223;17.182;-96.766;2023-01-09T04:59:34;21.90;52.80
44517;DHT22;30223;17.182;-96.766;2023-01-09T05:02:00;21.90;52.80
44517;DHT22;30223;17.182;-96.766;2023-01-09T05:04:27;21.90;52.80
44517;DHT22;30223;17.182;-96.766;2023-01-09T05:06:54;21.90;52.80
44517;DHT22;30223;17.182;-96.766;2023-01-09T05:09:20;21.90;52.80
44517;DHT22;30223;17.182;-96.766;2023-01-09T05:11:48;21.90;52.80
44517;DHT22;30223;17.182;-96.766;2023-01-09T05:14:15;21.80;52.70
44517;DHT22;30223;17.182;-96.766;2023-01-09T05:16:42;21.80;52.70
44517;DHT22;30223;17.182;-96.766;2023-01-09T05:19:08;21.80;52.70
44517;DHT22;30223;17.182;-96.766;2023-01-09T05:21:35;21.80;52.60
44517;DHT22;30223;17.182;-96.766;2023-01-09T05:24:01;21.80;52.50
44517;DHT22;30223;17.182;-96.766;2023-01-09T05:26:28;21.80;52.50
44517;DHT22;30223;17.182;-96.766;2023-01-09T05:28:55;21.80;52.40
44517;DHT22;30223;17.182;-96.766;2023-01-09T05:31:23;21.70;52.30
44517;DHT22;30223;17.182;-96.766;2023-01-09T05:33:51;21.70;52.30
44517;DHT22;30223;17.182;-96.766;2023-01-09T05:36:18;21.70;52.20
44517;DHT22;30223;17.182;-96.766;2023-01-09T05:38:44;21.70;52.20
44517;DHT22;30223;17.182;-96.766;2023-01-09T05:41:11;21.70;52.20
44517;DHT22;30223;17.182;-96.766;2023-01-09T05:43:38;21.70;52.10
44517;DHT22;30223;17.182;-96.766;2023-01-09T05:46:05;21.60;52.10
44517;DHT22;30223;17.182;-96.766;2023-01-09T05:48:31;21.70;52.30
44517;DHT22;30223;17.182;-96.766;2023-01-09T05:50:58;21.70;52.30
44517;DHT22;30223;17.182;-96.766;2023-01-09T05:53:25;21.70;52.30
44517;DHT22;30223;17.182;-96.766;2023-01-09T05:55:51;21.60;52.20
44517;DHT22;30223;17.182;-96.766;2023-01-09T05:58:18;21.60;52.20
44517;DHT22;30223;17.182;-96.766;2023-01-09T06:00:44;21.60;52.10
44517;DHT22;30223;17.182;-96.766;2023-01-09T06:03:11;21.60;52.20
44517;DHT22;30223;17.182;-96.766;2023-01-09T06:05:38;21.60;52.10
44517;DHT22;30223;17.182;-96.766;2023-01-09T06:08:04;21.60;52.10
44517;DHT22;30223;17.182;-96.766;2023-01-09T06:10:31;21.50;52.10
44517;DHT22;30223;17.182;-96.766;2023-01-09T06:12:58;21.50;52.10
44517;DHT22;30223;17.182;-96.766;2023-01-09T06:15:24;21.50;52.10
44517;DHT22;30223;17.182;-96.766;2023-01-09T06:17:51;21.50;52.00
44517;DHT22;30223;17.182;-96.766;2023-01-09T06:20:18;21.50;52.00
44517;DHT22;30223;17.182;-96.766;2023-01-09T06:22:44;21.40;51.90
44517;DHT22;30223;17.182;-96.766;2023-01-09T06:25:11;21.40;52.00
44517;DHT22;30223;17.182;-96.766;2023-01-09T06:27:38;21.50;52.00
44517;DHT22;30223;17.182;-96.766;2023-01-09T06:30:05;21.40;52.00
44517;DHT22;30223;17.182;-96.766;2023-01-09T06:32:32;21.40;52.00
44517;DHT22;30223;17.182;-96.766;2023-01-09T06:34:59;21.40;51.90
44517;DHT22;30223;17.182;-96.766;2023-01-09T06:37:25;21.40;52.00
44517;DHT22;30223;17.182;-96.766;2023-01-09T06:39:52;21.40;52.00
44517;DHT22;30223;17.182;-96.766;2023-01-09T06:42:19;21.40;52.00
44517;DHT22;30223;17.182;-96.766;2023-01-09T06:44:47;21.40;52.00
44517;DHT22;30223;17.182;-96.766;2023-01-09T06:47:13;21.40;52.00
44517;DHT22;30223;17.182;-96.766;2023-01-09T06:49:40;21.30;51.90
44517;DHT22;30223;17.182;-96.766;2023-01-09T06:52:06;21.30;52.00
44517;DHT22;30223;17.182;-96.766;2023-01-09T06:54:33;21.30;51.90
44517;DHT22;30223;17.182;-96.766;2023-01-09T06:57:00;21.30;51.90
44517;DHT22;30223;17.182;-96.766;2023-01-09T06:59:27;21.30;51.90
44517;DHT22;30223;17.182;-96.766;2023-01-09T07:01:53;21.30;52.00
44517;DHT22;30223;17.182;-96.766;2023-01-09T07:04:20;21.30;52.00
44517;DHT22;30223;17.182;-96.766;2023-01-09T07:06:48;21.20;51.90
44517;DHT22;30223;17.182;-96.766;2023-01-09T07:09:15;21.30;52.10
44517;DHT22;30223;17.182;-96.766;2023-01-09T07:11:41;21.20;51.90
44517;DHT22;30223;17.182;-96.766;2023-01-09T07:14:08;21.20;52.00
44517;DHT22;30223;17.182;-96.766;2023-01-09T07:16:35;21.20;52.10
44517;DHT22;30223;17.182;-96.766;2023-01-09T07:19:01;21.20;52.00
44517;DHT22;30223;17.182;-96.766;2023-01-09T07:21:28;21.20;52.10
44517;DHT22;30223;17.182;-96.766;2023-01-09T07:23:54;21.20;52.10
44517;DHT22;30223;17.182;-96.766;2023-01-09T07:26:21;21.10;52.10
44517;DHT22;30223;17.182;-96.766;2023-01-09T07:28:47;21.10;52.10
44517;DHT22;30223;17.182;-96.766;2023-01-09T07:31:14;21.20;52.10
44517;DHT22;30223;17.182;-96.766;2023-01-09T07:33:41;21.10;52.10
44517;DHT22;30223;17.182;-96.766;2023-01-09T07:36:07;21.10;52.10
44517;DHT22;30223;17.182;-96.766;2023-01-09T07:38:34;21.10;52.10
44517;DHT22;30223;17.182;-96.766;2023-01-09T07:41:01;21.10;52.10
44517;DHT22;30223;17.182;-96.766;2023-01-09T07:43:27;21.10;52.20
44517;DHT22;30223;17.182;-96.766;2023-01-09T07:45:54;21.10;52.20
44517;DHT22;30223;17.182;-96.766;2023-01-09T07:48:21;21.10;52.20
44517;DHT22;30223;17.182;-96.766;2023-01-09T07:50:47;21.10;52.20
44517;DHT22;30223;17.182;-96.766;2023-01-09T07:53:14;21.00;52.20
44517;DHT22;30223;17.182;-96.766;2023-01-09T07:55:42;21.00;52.20
44517;DHT22;30223;17.182;-96.766;2023-01-09T07:58:08;21.00;52.20
44517;DHT22;30223;17.182;-96.766;2023-01-09T08:00:35;21.00;52.20
44517;DHT22;30223;17.182;-96.766;2023-01-09T08:03:02;21.00;52.20
44517;DHT22;30223;17.182;-96.766;2023-01-09T08:09:03;21.00;52.40
44517;DHT22;30223;17.182;-96.766;2023-01-09T08:11:29;20.90;52.20
44517;DHT22;30223;17.182;-96.766;2023-01-09T08:13:57;20.90;52.20
44517;DHT22;30223;17.182;-96.766;2023-01-09T08:16:24;20.90;52.30
44517;DHT22;30223;17.182;-96.766;2023-01-09T08:18:50;20.90;52.30
44517;DHT22;30223;17.182;-96.766;2023-01-09T08:21:17;20.90;52.30
44517;DHT22;30223;17.182;-96.766;2023-01-09T08:23:43;20.80;52.30
44517;DHT22;30223;17.182;-96.766;2023-01-09T08:26:11;20.80;52.30
44517;DHT22;30223;17.182;-96.766;2023-01-09T08:28:37;20.80;52.30
44517;DHT22;30223;17.182;-96.766;2023-01-09T08:31:04;20.80;52.30
44517;DHT22;30223;17.182;-96.766;2023-01-09T08:33:31;20.80;52.30
44517;DHT22;30223;17.182;-96.766;2023-01-09T08:35:58;20.80;52.30
44517;DHT22;30223;17.182;-96.766;2023-01-09T08:38:24;20.80;52.40
44517;DHT22;30223;17.182;-96.766;2023-01-09T08:40:51;20.80;52.40
44517;DHT22;30223;17.182;-96.766;2023-01-09T08:43:17;20.80;52.30
44517;DHT22;30223;17.182;-96.766;2023-01-09T08:46:02;20.70;52.30
44517;DHT22;30223;17.182;-96.766;2023-01-09T08:48:47;20.70;52.90
44517;DHT22;30223;17.182;-96.766;2023-01-09T08:51:13;20.70;52.40
44517;DHT22;30223;17.182;-96.766;2023-01-09T08:53:40;20.70;52.40
44517;DHT22;30223;17.182;-96.766;2023-01-09T08:56:07;20.70;52.40
44517;DHT22;30223;17.182;-96.766;2023-01-09T08:58:33;20.70;52.40
44517;DHT22;30223;17.182;-96.766;2023-01-09T09:01:05;20.60;52.30
44517;DHT22;30223;17.182;-96.766;2023-01-09T09:03:31;20.60;52.40
44517;DHT22;30223;17.182;-96.766;2023-01-09T09:05:58;20.60;52.40
44517;DHT22;30223;17.182;-96.766;2023-01-09T09:08:25;20.60;52.40
44517;DHT22;30223;17.182;-96.766;2023-01-09T09:10:51;20.60;52.50
44517;DHT22;30223;17.182;-96.766;2023-01-09T09:13:18;20.60;52.40
44517;DHT22;30223;17.182;-96.766;2023-01-09T09:15:44;20.50;52.40
44517;DHT22;30223;17.182;-96.766;2023-01-09T09:18:11;20.50;52.40
44517;DHT22;30223;17.182;-96.766;2023-01-09T09:20:38;20.50;52.40
44517;DHT22;30223;17.182;-96.766;2023-01-09T09:23:05;20.50;52.40
44517;DHT22;30223;17.182;-96.766;2023-01-09T09:25:33;20.50;52.40
44517;DHT22;30223;17.182;-96.766;2023-01-09T09:28:00;20.50;52.40
44517;DHT22;30223;17.182;-96.766;2023-01-09T09:30:26;20.50;52.50
44517;DHT22;30223;17.182;-96.766;2023-01-09T09:32:53;20.40;52.40
44517;DHT22;30223;17.182;-96.766;2023-01-09T09:35:20;20.40;52.50
44517;DHT22;30223;17.182;-96.766;2023-01-09T09:37:58;20.40;52.50
44517;DHT22;30223;17.182;-96.766;2023-01-09T09:44:24;20.40;53.10
44517;DHT22;30223;17.182;-96.766;2023-01-09T09:55:40;20.30;52.60
44517;DHT22;30223;17.182;-96.766;2023-01-09T09:58:20;20.20;52.50
44517;DHT22;30223;17.182;-96.766;2023-01-09T10:00:52;20.30;52.60
44517;DHT22;30223;17.182;-96.766;2023-01-09T10:06:41;20.20;52.60
44517;DHT22;30223;17.182;-96.766;2023-01-09T10:11:53;20.20;52.60
44517;DHT22;30223;17.182;-96.766;2023-01-09T10:14:22;20.10;52.50
44517;DHT22;30223;17.182;-96.766;2023-01-09T10:20:26;20.10;52.60
44517;DHT22;30223;17.182;-96.766;2023-01-09T10:24:16;20.10;52.60
44517;DHT22;30223;17.182;-96.766;2023-01-09T10:31:25;20.00;52.60
44517;DHT22;30223;17.182;-96.766;2023-01-09T10:34:13;20.00;52.60
44517;DHT22;30223;17.182;-96.766;2023-01-09T10:37:17;20.00;52.60
44517;DHT22;30223;17.182;-96.766;2023-01-09T10:40:27;19.90;52.60
44517;DHT22;30223;17.182;-96.766;2023-01-09T10:43:08;19.90;52.60
44517;DHT22;30223;17.182;-96.766;2023-01-09T10:46:04;20.00;52.70
44517;DHT22;30223;17.182;-96.766;2023-01-09T10:48:35;19.90;52.60
44517;DHT22;30223;17.182;-96.766;2023-01-09T10:51:20;19.90;52.60
44517;DHT22;30223;17.182;-96.766;2023-01-09T10:53:55;19.90;52.60
44517;DHT22;30223;17.182;-96.766;2023-01-09T10:56:35;19.90;52.60
44517;DHT22;30223;17.182;-96.766;2023-01-09T10:59:03;19.90;52.70
44517;DHT22;30223;17.182;-96.766;2023-01-09T11:01:33;19.80;52.60
44517;DHT22;30223;17.182;-96.766;2023-01-09T11:07:02;19.80;52.60
44517;DHT22;30223;17.182;-96.766;2023-01-09T11:09:59;19.80;52.60
44517;DHT22;30223;17.182;-96.766;2023-01-09T11:12:30;19.80;52.70
44517;DHT22;30223;17.182;-96.766;2023-01-09T11:17:42;19.70;52.60
44517;DHT22;30223;17.182;-96.766;2023-01-09T11:20:27;19.70;52.60
44517;DHT22;30223;17.182;-96.766;2023-01-09T11:22:57;19.70;52.70
44517;DHT22;30223;17.182;-96.766;2023-01-09T11:25:26;19.70;52.70
44517;DHT22;30223;17.182;-96.766;2023-01-09T11:28:13;19.70;52.80
44517;DHT22;30223;17.182;-96.766;2023-01-09T11:31:00;19.60;52.60
44517;DHT22;30223;17.182;-96.766;2023-01-09T11:33:35;19.60;52.70
44517;DHT22;30223;17.182;-96.766;2023-01-09T11:36:07;19.60;52.70
44517;DHT22;30223;17.182;-96.766;2023-01-09T11:38:50;19.50;52.70
44517;DHT22;30223;17.182;-96.766;2023-01-09T11:41:22;19.50;52.70
44517;DHT22;30223;17.182;-96.766;2023-01-09T11:43:54;19.50;52.70
44517;DHT22;30223;17.182;-96.766;2023-01-09T11:46:36;19.50;52.70
44517;DHT22;30223;17.182;-96.766;2023-01-09T11:51:42;19.50;52.70
44517;DHT22;30223;17.182;-96.766;2023-01-09T11:54:16;19.50;52.70
44517;DHT22;30223;17.182;-96.766;2023-01-09T11:56:44;19.40;53.30
44517;DHT22;30223;17.182;-96.766;2023-01-09T11:59:14;19.40;52.70
44517;DHT22;30223;17.182;-96.766;2023-01-09T12:16:20;19.30;52.70
44517;DHT22;30223;17.182;-96.766;2023-01-09T12:24:16;19.30;52.70
44517;DHT22;30223;17.182;-96.766;2023-01-09T12:27:00;19.20;52.60
44517;DHT22;30223;17.182;-96.766;2023-01-09T12:32:42;19.20;52.60
44517;DHT22;30223;17.182;-96.766;2023-01-09T12:37:59;19.10;52.60
44517;DHT22;30223;17.182;-96.766;2023-01-09T12:43:24;19.10;52.60
44517;DHT22;30223;17.182;-96.766;2023-01-09T12:52:11;19.10;52.60
44517;DHT22;30223;17.182;-96.766;2023-01-09T12:55:18;19.00;52.60
44517;DHT22;30223;17.182;-96.766;2023-01-09T12:57:54;19.00;52.60
44517;DHT22;30223;17.182;-96.766;2023-01-09T13:00:27;19.00;52.60
44517;DHT22;30223;17.182;-96.766;2023-01-09T13:05:34;19.00;52.70
44517;DHT22;30223;17.182;-96.766;2023-01-09T13:10:50;18.90;52.60
44517;DHT22;30223;17.182;-96.766;2023-01-09T13:15:48;18.90;52.60
44517;DHT22;30223;17.182;-96.766;2023-01-09T13:18:27;18.90;52.60
44517;DHT22;30223;17.182;-96.766;2023-01-09T13:20:55;18.90;52.70
44517;DHT22;30223;17.182;-96.766;2023-01-09T13:23:28;18.90;52.70
44517;DHT22;30223;17.182;-96.766;2023-01-09T13:26:03;18.90;52.70
44517;DHT22;30223;17.182;-96.766;2023-01-09T13:28:42;18.90;52.80
44517;DHT22;30223;17.182;-96.766;2023-01-09T13:33:58;18.80;52.80
44517;DHT22;30223;17.182;-96.766;2023-01-09T13:36:31;18.80;52.80
44517;DHT22;30223;17.182;-96.766;2023-01-09T13:39:00;18.80;52.90
44517;DHT22;30223;17.182;-96.766;2023-01-09T13:41:28;18.80;52.90
44517;DHT22;30223;17.182;-96.766;2023-01-09T13:44:18;18.70;52.80
44517;DHT22;30223;17.182;-96.766;2023-01-09T13:46:52;18.70;52.90
44517;DHT22;30223;17.182;-96.766;2023-01-09T13:59:57;18.70;53.10
44517;DHT22;30223;17.182;-96.766;2023-01-09T14:06:01;18.60;53.00
44517;DHT22;30223;17.182;-96.766;2023-01-09T14:08:03;18.60;53.10
44517;DHT22;30223;17.182;-96.766;2023-01-09T14:10:35;18.60;53.20
44517;DHT22;30223;17.182;-96.766;2023-01-09T14:13:07;18.60;53.40
44517;DHT22;30223;17.182;-96.766;2023-01-09T14:15:40;18.60;53.50
44517;DHT22;30223;17.182;-96.766;2023-01-09T14:21:02;18.60;53.80
44517;DHT22;30223;17.182;-96.766;2023-01-09T14:26:04;18.60;53.90
44517;DHT22;30223;17.182;-96.766;2023-01-09T14:28:32;18.70;54.10
44517;DHT22;30223;17.182;-96.766;2023-01-09T14:33:28;18.70;54.30
44517;DHT22;30223;17.182;-96.766;2023-01-09T14:36:13;18.70;54.40
44517;DHT22;30223;17.182;-96.766;2023-01-09T14:44:30;18.70;54.70
44517;DHT22;30223;17.182;-96.766;2023-01-09T14:49:57;18.70;54.80
44517;DHT22;30223;17.182;-96.766;2023-01-09T14:52:47;18.70;54.90
44517;DHT22;30223;17.182;-96.766;2023-01-09T14:55:26;18.70;55.00
44517;DHT22;30223;17.182;-96.766;2023-01-09T14:57:59;18.70;55.10
44517;DHT22;30223;17.182;-96.766;2023-01-09T15:00:34;18.70;55.20
44517;DHT22;30223;17.182;-96.766;2023-01-09T15:03:02;18.70;55.20
44517;DHT22;30223;17.182;-96.766;2023-01-09T15:05:30;18.70;55.30
44517;DHT22;30223;17.182;-96.766;2023-01-09T15:08:01;18.80;55.40
44517;DHT22;30223;17.182;-96.766;2023-01-09T15:10:31;18.80;55.50
44517;DHT22;30223;17.182;-96.766;2023-01-09T15:13:00;18.80;55.60
44517;DHT22;30223;17.182;-96.766;2023-01-09T15:15:28;18.80;55.70
44517;DHT22;30223;17.182;-96.766;2023-01-09T15:18:06;18.80;55.80
44517;DHT22;30223;17.182;-96.766;2023-01-09T15:20:33;18.80;55.80
44517;DHT22;30223;17.182;-96.766;2023-01-09T15:23:01;18.80;56.00
44517;DHT22;30223;17.182;-96.766;2023-01-09T15:28:01;18.90;56.10
44517;DHT22;30223;17.182;-96.766;2023-01-09T15:30:45;18.90;56.10
44517;DHT22;30223;17.182;-96.766;2023-01-09T15:33:14;18.90;56.10
44517;DHT22;30223;17.182;-96.766;2023-01-09T15:35:47;18.90;56.20
44517;DHT22;30223;17.182;-96.766;2023-01-09T15:38:18;18.90;56.30
44517;DHT22;30223;17.182;-96.766;2023-01-09T15:40:56;18.90;56.30
44517;DHT22;30223;17.182;-96.766;2023-01-09T15:43:23;18.90;56.30
44517;DHT22;30223;17.182;-96.766;2023-01-09T15:45:51;19.00;56.40
44517;DHT22;30223;17.182;-96.766;2023-01-09T15:48:30;19.00;56.40
44517;DHT22;30223;17.182;-96.766;2023-01-09T15:51:07;19.00;56.50
44517;DHT22;30223;17.182;-96.766;2023-01-09T15:53:45;19.00;56.50
44517;DHT22;30223;17.182;-96.766;2023-01-09T15:56:23;19.00;56.50
44517;DHT22;30223;17.182;-96.766;2023-01-09T15:58:52;19.00;56.50
44517;DHT22;30223;17.182;-96.766;2023-01-09T16:03:49;19.10;56.60
44517;DHT22;30223;17.182;-96.766;2023-01-09T16:06:31;19.10;56.60
44517;DHT22;30223;17.182;-96.766;2023-01-09T16:08:59;19.10;56.60
44517;DHT22;30223;17.182;-96.766;2023-01-09T16:11:29;19.10;56.50
44517;DHT22;30223;17.182;-96.766;2023-01-09T16:14:01;19.10;56.50
44517;DHT22;30223;17.182;-96.766;2023-01-09T16:16:35;19.20;56.50
44517;DHT22;30223;17.182;-96.766;2023-01-09T16:19:02;19.20;56.40
44517;DHT22;30223;17.182;-96.766;2023-01-09T16:21:35;19.20;56.40
44517;DHT22;30223;17.182;-96.766;2023-01-09T16:26:34;19.20;56.40
44517;DHT22;30223;17.182;-96.766;2023-01-09T16:29:35;19.30;56.40
44517;DHT22;30223;17.182;-96.766;2023-01-09T16:32:04;19.30;56.40
44517;DHT22;30223;17.182;-96.766;2023-01-09T16:34:33;19.30;56.60
44517;DHT22;30223;17.182;-96.766;2023-01-09T16:37:00;19.40;56.50
44517;DHT22;30223;17.182;-96.766;2023-01-09T16:39:29;19.40;56.70
44517;DHT22;30223;17.182;-96.766;2023-01-09T16:41:57;19.40;56.50
44517;DHT22;30223;17.182;-96.766;2023-01-09T16:44:42;19.40;56.50
44517;DHT22;30223;17.182;-96.766;2023-01-09T16:47:10;19.40;56.50
44517;DHT22;30223;17.182;-96.766;2023-01-09T16:49:37;19.50;56.50
44517;DHT22;30223;17.182;-96.766;2023-01-09T16:52:13;19.50;56.60
44517;DHT22;30223;17.182;-96.766;2023-01-09T16:54:41;19.50;56.50
44517;DHT22;30223;17.182;-96.766;2023-01-09T16:57:15;19.50;56.50
44517;DHT22;30223;17.182;-96.766;2023-01-09T16:59:44;19.50;56.50
44517;DHT22;30223;17.182;-96.766;2023-01-09T17:02:18;19.60;56.50
44517;DHT22;30223;17.182;-96.766;2023-01-09T17:04:45;19.60;56.50
44517;DHT22;30223;17.182;-96.766;2023-01-09T17:07:16;19.70;56.60
44517;DHT22;30223;17.182;-96.766;2023-01-09T17:09:43;19.70;56.50
44517;DHT22;30223;17.182;-96.766;2023-01-09T17:12:20;19.70;56.50
44517;DHT22;30223;17.182;-96.766;2023-01-09T17:14:48;19.70;56.50
44517;DHT22;30223;17.182;-96.766;2023-01-09T17:17:16;19.80;56.50
44517;DHT22;30223;17.182;-96.766;2023-01-09T17:19:43;19.80;56.50
44517;DHT22;30223;17.182;-96.766;2023-01-09T17:22:12;19.80;56.50
44517;DHT22;30223;17.182;-96.766;2023-01-09T17:24:39;19.80;56.40
44517;DHT22;30223;17.182;-96.766;2023-01-09T17:27:33;19.90;56.50
44517;DHT22;30223;17.182;-96.766;2023-01-09T17:30:18;19.90;56.40
44517;DHT22;30223;17.182;-96.766;2023-01-09T17:32:46;19.90;56.50
44517;DHT22;30223;17.182;-96.766;2023-01-09T17:35:13;20.00;56.50
44517;DHT22;30223;17.182;-96.766;2023-01-09T17:37:41;20.00;56.50
44517;DHT22;30223;17.182;-96.766;2023-01-09T17:40:26;20.00;56.50
44517;DHT22;30223;17.182;-96.766;2023-01-09T17:42:53;20.00;56.50
44517;DHT22;30223;17.182;-96.766;2023-01-09T17:45:20;20.10;56.50
44517;DHT22;30223;17.182;-96.766;2023-01-09T17:47:47;20.10;56.50
44517;DHT22;30223;17.182;-96.766;2023-01-09T17:50:22;20.10;56.50
44517;DHT22;30223;17.182;-96.766;2023-01-09T17:52:53;20.20;56.50
44517;DHT22;30223;17.182;-96.766;2023-01-09T17:55:20;20.20;56.50
44517;DHT22;30223;17.182;-96.766;2023-01-09T17:57:46;20.20;56.50
44517;DHT22;30223;17.182;-96.766;2023-01-09T18:00:26;20.30;56.50
44517;DHT22;30223;17.182;-96.766;2023-01-09T18:02:54;20.30;56.50
44517;DHT22;30223;17.182;-96.766;2023-01-09T18:05:21;20.30;56.50